Time;durP1;ratioP1;P1;durP2;ratioP2;P2;SDS_P1;SDS_P2;PMS_P1;PMS_P2;Temp;Humidity;BMP_temperature;BMP_pressure;BME280_temperature;BME280_humidity;BME280_pressure;Samples;Min_cycle;Max_cycle;Signal;HPM_P1;HPM_P2
2022/09/29 00:01:08;;;;;;;4.07;3.30;;;7.20;99.90;;;;;;5093738;28;20043;-66
2022/09/29 00:03:34;;;;;;;3.30;3.00;;;7.20;99.90;;;;;;5091700;28;20041;-65
2022/09/29 00:06:00;;;;;;;3.53;3.10;;;7.20;99.90;;;;;;5088755;28;20051;-65
2022/09/29 00:08:29;;;;;;;3.33;2.95;;;7.20;99.90;;;;;;5093118;28;20049;-66
2022/09/29 00:10:54;;;;;;;3.30;2.97;;;7.20;99.90;;;;;;5095836;27;20358;-67
2022/09/29 00:13:20;;;;;;;5.10;3.50;;;7.20;99.90;;;;;;5095412;28;20101;-66
2022/09/29 00:15:58;;;;;;;3.22;2.90;;;7.20;99.90;;;;;;5086995;28;20466;-66
2022/09/29 00:18:24;;;;;;;3.58;3.28;;;7.20;99.90;;;;;;5075706;28;20059;-66
2022/09/29 00:21:00;;;;;;;5.03;3.40;;;7.10;99.90;;;;;;5092316;28;20089;-66
2022/09/29 00:23:26;;;;;;;4.00;3.17;;;7.10;99.90;;;;;;5109415;27;20394;-67
2022/09/29 00:26:05;;;;;;;5.45;3.30;;;7.00;99.90;;;;;;5076561;28;20049;-65
2022/09/29 00:28:32;;;;;;;4.43;3.92;;;7.00;99.90;;;;;;5102890;28;20540;-65
2022/09/29 00:31:02;;;;;;;4.82;3.80;;;6.90;99.90;;;;;;5110332;28;20088;-66
2022/09/29 00:33:32;;;;;;;4.45;3.75;;;6.90;99.90;;;;;;5109728;28;20108;-66
2022/09/29 00:36:10;;;;;;;4.82;3.55;;;6.80;99.90;;;;;;5092313;28;20043;-66
2022/09/29 00:38:35;;;;;;;3.50;3.20;;;6.80;99.90;;;;;;5117381;27;20037;-66
2022/09/29 00:41:02;;;;;;;3.53;3.22;;;6.80;99.90;;;;;;5110258;28;20114;-65
2022/09/29 00:43:56;;;;;;;4.00;3.58;;;6.80;99.90;;;;;;5109903;27;20097;-66
2022/09/29 00:46:34;;;;;;;5.70;3.78;;;6.80;99.90;;;;;;5106883;28;20035;-66
2022/09/29 00:49:06;;;;;;;3.83;3.53;;;6.80;99.90;;;;;;5110197;28;20096;-66
2022/09/29 00:51:34;;;;;;;5.13;3.50;;;6.80;99.90;;;;;;5109895;28;20114;-66
2022/09/29 00:54:01;;;;;;;3.78;3.47;;;6.80;99.90;;;;;;5112489;27;20731;-65
2022/09/29 00:56:28;;;;;;;4.43;3.83;;;6.80;99.90;;;;;;5112718;27;20160;-64
2022/09/29 00:59:01;;;;;;;5.07;3.83;;;6.70;99.90;;;;;;5110446;27;20083;-65
2022/09/29 01:01:30;;;;;;;4.68;3.72;;;6.70;99.90;;;;;;5141285;27;20035;-67
2022/09/29 01:04:02;;;;;;;4.80;3.95;;;6.70;99.90;;;;;;5109668;28;20035;-66
2022/09/29 01:06:43;;;;;;;4.43;3.58;;;6.60;99.90;;;;;;5109684;28;20047;-67
2022/09/29 01:09:13;;;;;;;4.22;3.53;;;6.60;99.90;;;;;;5108827;28;20068;-65
2022/09/29 01:11:39;;;;;;;4.07;3.67;;;6.60;99.90;;;;;;5111278;27;20570;-65
2022/09/29 01:14:07;;;;;;;4.65;3.42;;;6.70;99.90;;;;;;5113649;27;20040;-65
2022/09/29 01:16:36;;;;;;;4.20;3.72;;;6.60;99.90;;;;;;5111797;27;20031;-65
2022/09/29 01:19:07;;;;;;;3.92;3.63;;;6.70;99.90;;;;;;5085338;28;20055;-65
2022/09/29 01:21:58;;;;;;;4.20;3.80;;;6.60;99.90;;;;;;5109646;28;20448;-66
2022/09/29 01:25:06;;;;;;;3.80;3.40;;;6.60;99.90;;;;;;5113311;27;20051;-66
2022/09/29 01:27:43;;;;;;;3.63;3.33;;;6.50;99.90;;;;;;5027778;28;20060;-66
2022/09/29 01:30:22;;;;;;;4.13;3.72;;;6.50;99.90;;;;;;5031180;28;20080;-64
2022/09/29 01:33:25;;;;;;;4.10;3.70;;;6.50;99.90;;;;;;5031061;28;20048;-66
2022/09/29 01:36:05;;;;;;;4.95;3.40;;;6.40;99.90;;;;;;5030939;28;20041;-66
2022/09/29 01:39:04;;;;;;;3.75;3.40;;;6.40;99.90;;;;;;5031266;28;20049;-65
2022/09/29 01:41:40;;;;;;;3.97;3.47;;;6.40;99.90;;;;;;4975014;28;20137;-67
2022/09/29 01:44:47;;;;;;;4.47;3.88;;;6.40;99.90;;;;;;4988115;28;20416;-65
2022/09/29 01:47:15;;;;;;;3.70;3.40;;;6.40;99.90;;;;;;4971931;28;20058;-65
2022/09/29 01:49:49;;;;;;;4.05;3.35;;;6.30;99.90;;;;;;4972035;28;20054;-66
2022/09/29 01:52:20;;;;;;;4.72;3.70;;;6.30;99.90;;;;;;4956486;28;20062;-66
2022/09/29 01:55:00;;;;;;;5.25;3.60;;;6.30;99.90;;;;;;5002514;28;20543;-67
2022/09/29 01:57:49;;;;;;;4.50;3.90;;;6.20;99.90;;;;;;4988287;28;20560;-65
2022/09/29 02:00:17;;;;;;;4.47;3.28;;;6.20;99.90;;;;;;4972637;28;20085;-65
2022/09/29 02:03:00;;;;;;;4.22;3.63;;;6.20;99.90;;;;;;4971789;28;20042;-66
2022/09/29 02:05:37;;;;;;;4.53;4.13;;;6.20;99.90;;;;;;5039991;28;20053;-65
2022/09/29 02:08:11;;;;;;;3.75;3.40;;;6.20;99.90;;;;;;5068565;28;20584;-66
2022/09/29 02:10:51;;;;;;;3.92;3.53;;;6.20;99.90;;;;;;5066086;28;20040;-65
2022/09/29 02:13:18;;;;;;;4.90;3.85;;;6.20;99.90;;;;;;5054801;28;20040;-65
2022/09/29 02:15:46;;;;;;;4.20;3.80;;;6.20;99.90;;;;;;5035355;28;20082;-64
2022/09/29 02:18:18;;;;;;;5.05;4.20;;;6.20;99.90;;;;;;5073996;28;20047;-66
2022/09/29 02:20:46;;;;;;;3.83;3.42;;;6.20;99.90;;;;;;5112724;28;20398;-65
2022/09/29 02:23:12;;;;;;;4.50;4.10;;;6.20;99.90;;;;;;5112426;28;20059;-64
2022/09/29 02:25:39;;;;;;;4.38;3.97;;;6.10;99.90;;;;;;5111682;28;20038;-65
2022/09/29 02:28:06;;;;;;;4.35;3.78;;;6.10;99.90;;;;;;5112170;28;20607;-65
2022/09/29 02:30:33;;;;;;;4.18;3.50;;;6.10;99.90;;;;;;5112760;28;20060;-66
2022/09/29 02:32:59;;;;;;;4.50;4.10;;;6.00;99.90;;;;;;5111596;27;20114;-65
2022/09/29 02:35:34;;;;;;;6.32;4.30;;;6.00;99.90;;;;;;5112608;28;20164;-65
2022/09/29 02:38:04;;;;;;;4.35;3.95;;;6.10;99.90;;;;;;5112438;28;20046;-65
2022/09/29 02:40:42;;;;;;;4.43;3.85;;;6.10;99.90;;;;;;5095168;28;20052;-65
2022/09/29 02:43:19;;;;;;;4.88;4.05;;;6.10;99.90;;;;;;5111389;28;20505;-65
2022/09/29 02:46:22;;;;;;;4.50;4.10;;;6.00;99.90;;;;;;5112530;28;20043;-66
2022/09/29 02:49:05;;;;;;;4.82;4.18;;;6.00;99.90;;;;;;5112930;27;20036;-65
2022/09/29 02:51:36;;;;;;;7.43;4.22;;;6.00;99.90;;;;;;5114425;27;20118;-66
2022/09/29 02:54:17;;;;;;;6.07;4.25;;;6.00;99.90;;;;;;5112295;28;20110;-64
2022/09/29 02:57:23;;;;;;;7.32;4.35;;;6.00;99.90;;;;;;5111443;28;20535;-66
2022/09/29 03:00:10;;;;;;;4.75;4.22;;;5.90;99.90;;;;;;5107707;28;20080;-66
2022/09/29 03:02:40;;;;;;;4.63;4.22;;;5.90;99.90;;;;;;5113464;27;20055;-66
2022/09/29 03:05:10;;;;;;;5.45;3.95;;;5.90;99.90;;;;;;5114327;27;20065;-66
2022/09/29 03:07:37;;;;;;;5.53;4.20;;;6.00;99.90;;;;;;5115815;27;20497;-65
2022/09/29 03:10:04;;;;;;;5.60;4.68;;;6.00;99.90;;;;;;5111797;28;20035;-64
2022/09/29 03:12:29;;;;;;;7.45;4.30;;;5.90;99.90;;;;;;5094432;28;20047;-66
2022/09/29 03:14:55;;;;;;;4.55;4.15;;;5.90;99.90;;;;;;5111048;28;20538;-66
2022/09/29 03:17:21;;;;;;;5.38;4.60;;;5.90;99.90;;;;;;5111636;28;20039;-65
2022/09/29 03:19:47;;;;;;;5.57;4.35;;;5.90;99.90;;;;;;5111286;28;20460;-65
2022/09/29 03:22:13;;;;;;;7.82;4.68;;;5.90;99.90;;;;;;5111437;28;20122;-64
2022/09/29 03:24:39;;;;;;;8.93;4.70;;;5.90;99.90;;;;;;5139221;27;20077;-66
2022/09/29 03:27:05;;;;;;;5.05;4.55;;;5.90;99.90;;;;;;5145788;27;20040;-65
2022/09/29 03:29:31;;;;;;;5.20;4.45;;;5.90;99.90;;;;;;5093496;28;20044;-66
2022/09/29 03:31:59;;;;;;;4.85;4.32;;;5.90;99.90;;;;;;5079291;28;20040;-65
2022/09/29 03:34:24;;;;;;;6.60;4.72;;;5.90;99.90;;;;;;5095872;27;20075;-66
2022/09/29 03:36:50;;;;;;;10.07;4.78;;;5.90;99.90;;;;;;5077834;27;20063;-67
2022/09/29 03:39:16;;;;;;;5.07;4.57;;;5.90;99.90;;;;;;5096549;28;20096;-65
2022/09/29 03:41:41;;;;;;;5.07;4.47;;;5.90;99.90;;;;;;5077843;28;20043;-65
2022/09/29 03:44:07;;;;;;;5.15;4.65;;;5.90;99.90;;;;;;5093681;28;20043;-66
2022/09/29 03:46:32;;;;;;;7.28;4.35;;;5.90;99.90;;;;;;5089798;28;20051;-65
2022/09/29 03:48:58;;;;;;;5.70;4.60;;;5.90;99.90;;;;;;5092683;28;20370;-65
2022/09/29 03:51:24;;;;;;;6.00;4.80;;;5.90;99.90;;;;;;5092216;28;20043;-66
2022/09/29 03:53:49;;;;;;;5.20;4.70;;;5.90;99.90;;;;;;5111447;28;20075;-66
2022/09/29 03:56:15;;;;;;;5.40;4.55;;;5.80;99.90;;;;;;5093772;28;20050;-66
2022/09/29 03:58:40;;;;;;;8.07;5.10;;;5.80;99.90;;;;;;5093699;28;20503;-67
2022/09/29 04:01:06;;;;;;;6.85;5.32;;;5.80;99.90;;;;;;5072776;28;20052;-64
2022/09/29 04:03:32;;;;;;;6.50;5.13;;;5.80;99.90;;;;;;5093744;28;20051;-66
2022/09/29 04:05:58;;;;;;;5.20;4.70;;;5.80;99.90;;;;;;5092075;28;20031;-65
2022/09/29 04:08:23;;;;;;;5.20;4.70;;;5.80;99.90;;;;;;5093374;28;20036;-65
2022/09/29 04:10:49;;;;;;;6.43;5.30;;;5.80;99.90;;;;;;5093708;28;20082;-65
2022/09/29 04:13:15;;;;;;;5.57;5.07;;;5.80;99.90;;;;;;5093998;28;20040;-66
2022/09/29 04:15:41;;;;;;;5.43;4.78;;;5.80;99.90;;;;;;5092384;28;20048;-64
2022/09/29 04:18:06;;;;;;;6.75;5.38;;;5.80;99.90;;;;;;5099871;27;20054;-66
2022/09/29 04:20:32;;;;;;;7.68;6.13;;;5.80;99.90;;;;;;5095232;28;20040;-66
2022/09/29 04:22:59;;;;;;;5.82;5.05;;;5.70;99.90;;;;;;5095430;28;20040;-65
2022/09/29 04:25:26;;;;;;;11.50;5.45;;;5.70;99.90;;;;;;5075793;28;20063;-66
2022/09/29 04:27:52;;;;;;;14.18;5.70;;;5.70;99.90;;;;;;5097816;28;20086;-65
2022/09/29 04:30:18;;;;;;;16.38;5.78;;;5.70;99.90;;;;;;5110890;28;20083;-66
2022/09/29 04:32:44;;;;;;;11.68;5.65;;;5.60;99.90;;;;;;5108414;28;20074;-66
2022/09/29 04:35:10;;;;;;;7.65;6.15;;;5.60;99.90;;;;;;5110530;28;20479;-66
2022/09/29 04:37:35;;;;;;;16.63;6.63;;;5.60;99.90;;;;;;5109002;28;20471;-66
2022/09/29 04:40:02;;;;;;;10.88;6.35;;;5.50;99.90;;;;;;5117132;27;20462;-65
2022/09/29 04:42:28;;;;;;;26.15;6.88;;;5.40;99.90;;;;;;5110175;28;20039;-65
2022/09/29 04:44:54;;;;;;;17.83;6.57;;;5.40;99.90;;;;;;5115590;27;20089;-65
2022/09/29 04:47:19;;;;;;;10.23;6.97;;;5.40;99.90;;;;;;5110555;28;20473;-66
2022/09/29 04:49:45;;;;;;;11.68;5.90;;;5.40;99.90;;;;;;5097647;28;20439;-66
2022/09/29 04:52:12;;;;;;;17.92;5.97;;;5.40;99.90;;;;;;5110443;28;20541;-66
2022/09/29 04:54:38;;;;;;;19.75;5.13;;;5.40;99.90;;;;;;5114585;27;20070;-66
2022/09/29 04:57:05;;;;;;;11.32;5.00;;;5.40;99.90;;;;;;5110020;28;20040;-66
2022/09/29 04:59:30;;;;;;;12.57;4.93;;;5.40;99.90;;;;;;5091938;28;20052;-66
2022/09/29 05:01:56;;;;;;;10.23;4.65;;;5.30;99.90;;;;;;5091183;28;20047;-65
2022/09/29 05:04:22;;;;;;;6.80;4.50;;;5.30;99.90;;;;;;5106921;28;20047;-66
2022/09/29 05:06:47;;;;;;;7.05;5.00;;;5.20;99.90;;;;;;5109806;28;20031;-67
2022/09/29 05:09:13;;;;;;;6.07;4.72;;;5.30;99.90;;;;;;5113018;27;20086;-65
2022/09/29 05:11:39;;;;;;;7.63;4.95;;;5.30;99.90;;;;;;5109974;28;20088;-66
2022/09/29 05:14:05;;;;;;;10.43;4.72;;;5.20;99.90;;;;;;5091536;28;20039;-64
2022/09/29 05:16:31;;;;;;;8.93;5.18;;;5.20;99.90;;;;;;5111228;28;20520;-66
2022/09/29 05:18:57;;;;;;;9.98;4.88;;;5.20;99.90;;;;;;5110724;27;20299;-65
2022/09/29 05:21:23;;;;;;;6.53;4.45;;;5.20;99.90;;;;;;5110001;28;20441;-65
2022/09/29 05:23:48;;;;;;;8.52;4.63;;;5.20;99.90;;;;;;5093645;27;20047;-66
2022/09/29 05:26:14;;;;;;;5.75;4.75;;;5.20;99.90;;;;;;5092180;28;20148;-65
2022/09/29 05:28:45;;;;;;;6.80;4.97;;;5.20;99.90;;;;;;5109432;28;20050;-66
2022/09/29 05:31:11;;;;;;;7.97;4.90;;;5.20;99.90;;;;;;5108272;28;20158;-67
2022/09/29 05:33:37;;;;;;;8.70;5.20;;;5.20;99.90;;;;;;5108540;28;20035;-66
2022/09/29 05:36:07;;;;;;;8.52;5.15;;;5.20;99.90;;;;;;5110784;28;20042;-66
2022/09/29 05:38:34;;;;;;;10.10;5.20;;;5.20;99.90;;;;;;5090063;28;20055;-66
2022/09/29 05:41:04;;;;;;;8.50;5.40;;;5.20;99.90;;;;;;5107981;28;20039;-65
2022/09/29 05:43:30;;;;;;;9.07;5.05;;;5.20;99.90;;;;;;5109333;28;20382;-64
2022/09/29 05:46:00;;;;;;;5.88;4.82;;;5.20;99.90;;;;;;5112175;27;20038;-66
2022/09/29 05:48:28;;;;;;;5.03;4.32;;;5.20;99.90;;;;;;5113481;28;20047;-65
2022/09/29 05:50:53;;;;;;;6.72;4.30;;;5.20;99.90;;;;;;5095102;28;20055;-65
2022/09/29 05:53:19;;;;;;;8.27;4.00;;;5.20;99.90;;;;;;5113303;28;20032;-66
2022/09/29 05:55:45;;;;;;;16.05;4.68;;;5.20;99.90;;;;;;5094789;28;20043;-65
2022/09/29 05:58:10;;;;;;;6.07;4.00;;;5.30;99.90;;;;;;5112977;28;20077;-65
2022/09/29 06:00:36;;;;;;;9.55;4.10;;;5.30;99.90;;;;;;5115691;27;20375;-65
2022/09/29 06:03:02;;;;;;;5.15;4.30;;;5.30;99.90;;;;;;5112165;27;20039;-66
2022/09/29 06:05:28;;;;;;;4.00;3.70;;;5.20;99.90;;;;;;5114765;27;20505;-65
2022/09/29 06:07:54;;;;;;;4.70;4.30;;;5.30;99.90;;;;;;5095816;28;20047;-65
2022/09/29 06:10:20;;;;;;;4.47;4.07;;;5.30;99.90;;;;;;5094530;28;20043;-66
2022/09/29 06:12:45;;;;;;;4.53;4.13;;;5.30;99.90;;;;;;5113246;28;20050;-66
2022/09/29 06:15:12;;;;;;;6.05;4.43;;;5.30;99.90;;;;;;5121606;27;20122;-64
2022/09/29 06:17:38;;;;;;;5.53;4.65;;;5.40;99.90;;;;;;5113020;28;20060;-64
2022/09/29 06:20:05;;;;;;;6.30;4.68;;;5.40;99.90;;;;;;5115284;27;20082;-65
2022/09/29 06:22:32;;;;;;;5.45;4.40;;;5.40;99.90;;;;;;5095960;28;20035;-66
2022/09/29 06:24:57;;;;;;;4.57;4.18;;;5.40;99.90;;;;;;5113932;27;20100;-66
2022/09/29 06:27:23;;;;;;;10.68;4.75;;;5.50;99.90;;;;;;5114210;27;20494;-66
2022/09/29 06:29:49;;;;;;;7.90;4.60;;;5.50;99.90;;;;;;5117119;27;20044;-67
2022/09/29 06:32:14;;;;;;;5.05;4.65;;;5.50;99.90;;;;;;5115655;27;20198;-64
2022/09/29 06:37:33;;;;;;;11.07;4.90;;;5.60;99.90;;;;;;5112793;28;20038;-66
2022/09/29 06:37:34;;;;;;;6.82;5.20;;;5.60;99.90;;;;;;5110960;28;20063;-66
2022/09/29 06:40:09;;;;;;;14.35;5.22;;;5.70;99.90;;;;;;5094532;28;20048;-65
2022/09/29 06:42:35;;;;;;;13.25;4.88;;;5.80;99.90;;;;;;5112610;28;20043;-65
2022/09/29 06:45:01;;;;;;;12.20;4.97;;;5.80;99.90;;;;;;5111951;28;20039;-66
2022/09/29 06:47:26;;;;;;;14.88;4.80;;;5.90;99.90;;;;;;5127999;27;20043;-65
2022/09/29 06:49:52;;;;;;;6.45;4.82;;;5.90;99.90;;;;;;5095846;28;20043;-66
2022/09/29 06:52:18;;;;;;;5.07;4.65;;;6.00;99.90;;;;;;5111712;28;20043;-66
2022/09/29 06:54:43;;;;;;;5.03;4.63;;;6.00;99.90;;;;;;5112811;28;20498;-66
2022/09/29 06:57:09;;;;;;;5.57;4.70;;;6.20;99.90;;;;;;5111179;28;20075;-65
2022/09/29 06:59:35;;;;;;;4.85;4.45;;;6.20;99.90;;;;;;5110160;27;20414;-66
2022/09/29 07:02:01;;;;;;;5.85;5.30;;;6.30;99.90;;;;;;5111952;28;20036;-66
2022/09/29 07:04:26;;;;;;;5.78;5.28;;;6.40;99.90;;;;;;5112260;28;20046;-65
2022/09/29 07:06:52;;;;;;;5.55;4.82;;;6.40;99.90;;;;;;5112307;27;20417;-66
2022/09/29 07:09:18;;;;;;;5.05;4.65;;;6.50;99.90;;;;;;5111197;28;20572;-65
2022/09/29 07:11:50;;;;;;;5.95;5.28;;;6.50;99.90;;;;;;5111893;27;20537;-66
2022/09/29 07:14:18;;;;;;;8.27;5.80;;;6.70;99.90;;;;;;5141423;27;20069;-65
2022/09/29 07:16:46;;;;;;;6.80;6.20;;;6.80;99.90;;;;;;5093406;28;20035;-65
2022/09/29 07:19:11;;;;;;;6.93;6.32;;;6.90;99.90;;;;;;5095404;27;20050;-66
2022/09/29 07:21:37;;;;;;;7.10;6.18;;;7.10;99.90;;;;;;5113475;27;20485;-66
2022/09/29 07:24:02;;;;;;;6.90;6.30;;;7.20;99.90;;;;;;5094501;28;20497;-64
2022/09/29 07:26:29;;;;;;;6.93;6.22;;;7.40;99.90;;;;;;5111681;28;20040;-65
2022/09/29 07:28:54;;;;;;;6.85;6.25;;;7.50;99.90;;;;;;5108699;28;20096;-66
2022/09/29 07:31:21;;;;;;;6.72;6.05;;;7.70;99.90;;;;;;5111752;28;20075;-65
2022/09/29 07:33:48;;;;;;;7.47;6.80;;;7.80;99.90;;;;;;5111255;28;20478;-65
2022/09/29 07:36:16;;;;;;;7.30;6.60;;;8.00;99.90;;;;;;5111750;28;20092;-66
2022/09/29 07:38:45;;;;;;;6.70;6.10;;;8.10;99.90;;;;;;5111167;28;20043;-65
2022/09/29 07:41:11;;;;;;;6.78;6.15;;;8.20;99.90;;;;;;5097855;28;20047;-65
2022/09/29 07:43:37;;;;;;;8.35;6.70;;;8.40;99.90;;;;;;5093871;28;20055;-66
2022/09/29 07:46:04;;;;;;;8.70;7.75;;;8.60;99.90;;;;;;5094110;28;20035;-66
2022/09/29 07:48:31;;;;;;;7.50;6.80;;;8.70;99.90;;;;;;5111318;28;20051;-66
2022/09/29 07:51:05;;;;;;;8.65;7.85;;;8.80;99.90;;;;;;5092667;27;20100;-66
2022/09/29 07:53:31;;;;;;;8.00;7.20;;;8.80;99.90;;;;;;5111391;27;20367;-66
2022/09/29 07:56:10;;;;;;;8.35;7.55;;;8.80;99.90;;;;;;5111280;27;20074;-67
2022/09/29 07:58:36;;;;;;;8.93;7.57;;;8.90;99.90;;;;;;5108800;27;20042;-66
2022/09/29 08:01:05;;;;;;;8.90;8.10;;;8.90;99.90;;;;;;5110818;27;20043;-66
2022/09/29 08:03:31;;;;;;;8.05;7.32;;;8.90;99.90;;;;;;5111120;28;20039;-66
2022/09/29 08:05:58;;;;;;;9.07;8.18;;;8.90;99.90;;;;;;5112178;27;20051;-65
2022/09/29 08:08:24;;;;;;;9.23;8.32;;;8.90;99.90;;;;;;5092432;28;20044;-65
2022/09/29 08:10:49;;;;;;;10.35;9.00;;;9.00;99.90;;;;;;5109715;28;20089;-65
2022/09/29 08:13:16;;;;;;;10.13;9.10;;;9.20;99.90;;;;;;5110947;28;20428;-66
2022/09/29 08:15:41;;;;;;;10.23;8.75;;;9.30;99.90;;;;;;5093960;28;20051;-66
2022/09/29 08:18:07;;;;;;;11.70;9.57;;;9.50;99.90;;;;;;5109013;28;20047;-66
2022/09/29 08:20:35;;;;;;;10.85;9.60;;;9.60;99.90;;;;;;5110693;28;20031;-66
2022/09/29 08:23:00;;;;;;;11.40;10.30;;;9.80;99.90;;;;;;5109391;28;20401;-66
2022/09/29 08:25:26;;;;;;;10.70;9.60;;;9.70;99.90;;;;;;5110699;28;20036;-66
2022/09/29 08:27:52;;;;;;;10.65;9.65;;;9.90;99.90;;;;;;5114777;27;20511;-66
2022/09/29 08:30:18;;;;;;;11.75;10.55;;;10.00;99.90;;;;;;5110438;28;20047;-65
2022/09/29 08:32:53;;;;;;;11.63;10.40;;;10.20;99.90;;;;;;5110507;28;20062;-66
2022/09/29 08:35:19;;;;;;;12.32;11.13;;;10.30;99.90;;;;;;5110783;28;20035;-66
2022/09/29 08:37:45;;;;;;;12.57;10.95;;;10.40;99.90;;;;;;5110675;28;20045;-66
2022/09/29 08:40:11;;;;;;;15.70;13.38;;;10.70;99.90;;;;;;5110061;28;20126;-66
2022/09/29 08:43:18;;;;;;;23.80;19.40;;;10.90;99.90;;;;;;5108945;27;20206;-66
2022/09/29 08:45:49;;;;;;;23.52;18.83;;;11.10;99.90;;;;;;5032203;28;20549;-65
2022/09/29 08:48:23;;;;;;;22.45;17.83;;;11.30;99.90;;;;;;5015165;28;20076;-66
2022/09/29 08:50:57;;;;;;;18.15;14.32;;;11.40;99.90;;;;;;5031128;28;20143;-65
2022/09/29 08:53:26;;;;;;;15.63;13.95;;;11.60;99.90;;;;;;5031813;28;20044;-65
2022/09/29 08:56:00;;;;;;;17.08;13.27;;;11.70;99.90;;;;;;5030911;28;20056;-65
2022/09/29 08:58:26;;;;;;;14.73;13.32;;;11.90;99.90;;;;;;5031636;28;20049;-65
2022/09/29 09:01:16;;;;;;;13.95;11.48;;;12.20;99.90;;;;;;5031885;28;20037;-66
2022/09/29 09:04:08;;;;;;;13.15;11.70;;;12.30;99.90;;;;;;5031784;28;20087;-66
2022/09/29 09:06:54;;;;;;;11.07;9.98;;;12.30;99.90;;;;;;5030713;28;20077;-66
2022/09/29 09:09:45;;;;;;;10.88;9.30;;;12.40;99.90;;;;;;5016923;28;20033;-66
2022/09/29 09:12:20;;;;;;;10.23;9.25;;;12.60;99.90;;;;;;5032632;28;20051;-65
2022/09/29 09:15:00;;;;;;;11.00;9.80;;;12.80;99.90;;;;;;5029710;28;20032;-66
2022/09/29 09:17:50;;;;;;;9.85;8.95;;;13.00;99.90;;;;;;5031447;28;20040;-66
2022/09/29 09:20:25;;;;;;;9.75;8.85;;;13.20;99.90;;;;;;5026043;28;20121;-65
2022/09/29 09:22:58;;;;;;;8.55;7.68;;;13.30;99.90;;;;;;5076131;28;20409;-65
2022/09/29 09:25:33;;;;;;;8.88;7.97;;;13.30;99.90;;;;;;5109361;28;20051;-65
2022/09/29 09:28:15;;;;;;;9.00;8.10;;;13.40;99.90;;;;;;5109832;28;20046;-66
2022/09/29 09:31:04;;;;;;;8.32;7.53;;;13.60;99.90;;;;;;5086242;28;21592;-66
2022/09/29 09:33:51;;;;;;;8.75;7.85;;;13.80;99.90;;;;;;5121052;27;20485;-66
2022/09/29 09:36:28;;;;;;;7.65;6.95;;;14.00;99.90;;;;;;5091743;28;20051;-66
2022/09/29 09:39:33;;;;;;;8.32;6.55;;;14.10;99.90;;;;;;5090719;28;20040;-65
2022/09/29 09:42:06;;;;;;;8.25;6.97;;;14.30;99.90;;;;;;4992081;28;20125;-66
2022/09/29 09:44:35;;;;;;;9.02;7.28;;;14.40;99.90;;;;;;4992029;28;20108;-67
2022/09/29 09:47:23;;;;;;;8.35;5.95;;;14.60;99.90;;;;;;4992041;28;20046;-67
2022/09/29 09:49:56;;;;;;;6.25;5.65;;;14.70;99.90;;;;;;4991283;28;20485;-67
2022/09/29 09:52:39;;;;;;;6.20;5.63;;;14.70;99.90;;;;;;4991646;28;20042;-67
2022/09/29 09:55:09;;;;;;;6.38;5.35;;;14.80;99.90;;;;;;4991822;28;20054;-66
2022/09/29 09:57:55;;;;;;;5.53;5.03;;;15.00;99.90;;;;;;4991901;28;20052;-66
2022/09/29 10:00:22;;;;;;;5.55;5.07;;;15.40;99.90;;;;;;4991760;28;20046;-67
2022/09/29 10:02:54;;;;;;;5.38;4.70;;;15.70;99.90;;;;;;4992547;28;20556;-66
2022/09/29 10:05:29;;;;;;;5.40;4.90;;;15.90;99.90;;;;;;4991864;28;20498;-67
2022/09/29 10:07:55;;;;;;;7.40;5.05;;;15.80;99.90;;;;;;4991230;28;20071;-66
2022/09/29 10:10:27;;;;;;;5.22;4.72;;;15.60;99.90;;;;;;5012430;28;20443;-68
2022/09/29 10:13:08;;;;;;;5.55;4.60;;;15.90;99.90;;;;;;4991943;28;20041;-66
2022/09/29 10:15:37;;;;;;;5.60;4.68;;;16.30;99.90;;;;;;5022471;28;20282;-67
2022/09/29 10:18:34;;;;;;;5.18;4.68;;;16.50;99.90;;;;;;5089390;28;20127;-67
2022/09/29 10:21:00;;;;;;;5.22;4.72;;;16.70;99.90;;;;;;4991882;28;20139;-67
2022/09/29 10:23:31;;;;;;;5.15;4.63;;;16.90;99.90;;;;;;4993851;28;20050;-67
2022/09/29 10:26:07;;;;;;;5.47;4.32;;;17.20;99.90;;;;;;4996413;28;20049;-66
2022/09/29 10:28:40;;;;;;;5.00;4.50;;;17.40;99.90;;;;;;4987122;28;20098;-67
2022/09/29 10:31:27;;;;;;;4.25;3.85;;;17.60;99.90;;;;;;4991789;28;20407;-67
2022/09/29 10:33:59;;;;;;;4.70;4.20;;;17.80;99.90;;;;;;4991656;28;20843;-67
2022/09/29 10:36:47;;;;;;;4.25;3.92;;;17.70;99.90;;;;;;4997235;28;20099;-67
2022/09/29 10:40:01;;;;;;;6.55;4.10;;;17.40;99.90;;;;;;5009706;28;20389;-68
2022/09/29 10:42:54;;;;;;;3.65;3.35;;;17.40;99.90;;;;;;4918180;29;20620;-67
2022/09/29 10:45:25;;;;;;;5.18;3.90;;;17.60;99.90;;;;;;4915064;29;20051;-67
2022/09/29 10:47:56;;;;;;;4.82;3.70;;;17.50;99.90;;;;;;4922911;29;20055;-67
2022/09/29 10:50:30;;;;;;;4.78;3.30;;;18.00;99.90;;;;;;4959665;28;20111;-67
2022/09/29 10:53:03;;;;;;;6.10;3.45;;;18.10;99.90;;;;;;4943961;29;20051;-67
2022/09/29 10:55:33;;;;;;;3.70;3.40;;;18.00;99.90;;;;;;4920576;29;20044;-67
2022/09/29 10:58:04;;;;;;;3.55;3.25;;;18.50;99.90;;;;;;5008640;28;20045;-66
2022/09/29 11:00:38;;;;;;;3.50;2.92;;;18.60;99.90;;;;;;5022889;28;20045;-67
2022/09/29 11:03:26;;;;;;;4.38;2.35;;;18.70;99.90;;;;;;5033547;28;20081;-66
2022/09/29 11:06:00;;;;;;;2.53;2.10;;;18.80;99.90;;;;;;5016368;28;20045;-67
2022/09/29 11:08:26;;;;;;;2.30;2.10;;;18.50;99.90;;;;;;5018338;28;20389;-67
2022/09/29 11:11:27;;;;;;;2.25;1.80;;;18.50;99.90;;;;;;5017228;28;20049;-67
2022/09/29 11:13:53;;;;;;;1.90;1.67;;;18.50;99.90;;;;;;4969911;28;20091;-68
2022/09/29 11:16:51;;;;;;;1.70;1.35;;;18.50;99.90;;;;;;4974158;28;20042;-67
2022/09/29 11:19:16;;;;;;;3.33;1.60;;;18.50;99.30;;;;;;4974606;28;20054;-68
2022/09/29 11:22:00;;;;;;;2.08;1.50;;;18.50;99.90;;;;;;4974244;28;20049;-68
2022/09/29 11:25:08;;;;;;;2.38;1.50;;;18.70;99.90;;;;;;4994304;28;20461;-68
2022/09/29 11:27:55;;;;;;;1.40;1.30;;;18.90;99.90;;;;;;4894873;29;20052;-68
2022/09/29 11:30:23;;;;;;;1.50;1.40;;;18.70;98.40;;;;;;4910322;29;20200;-69
2022/09/29 11:32:49;;;;;;;2.05;1.40;;;18.60;99.00;;;;;;4910257;29;20060;-68
2022/09/29 11:35:42;;;;;;;1.92;1.40;;;18.70;99.20;;;;;;4879054;29;20045;-68
2022/09/29 11:38:35;;;;;;;2.08;1.40;;;18.90;99.00;;;;;;4879301;29;20092;-68
2022/09/29 11:41:33;;;;;;;1.42;1.30;;;19.10;99.30;;;;;;4878188;29;20041;-68
2022/09/29 11:43:59;;;;;;;1.70;1.33;;;19.20;99.30;;;;;;4859842;29;20052;-69
2022/09/29 11:46:33;;;;;;;2.53;1.30;;;19.30;98.90;;;;;;4860820;29;20052;-68
2022/09/29 11:49:38;;;;;;;1.70;1.40;;;19.10;98.60;;;;;;4891557;29;20048;-68
2022/09/29 11:52:51;;;;;;;1.25;1.13;;;19.00;98.70;;;;;;4912837;29;20095;-68
2022/09/29 11:55:36;;;;;;;3.28;1.50;;;18.80;97.30;;;;;;4894748;29;20056;-70
2022/09/29 11:58:19;;;;;;;4.80;1.83;;;18.50;98.10;;;;;;4928658;29;20052;-70
2022/09/29 12:00:59;;;;;;;;;;;18.40;98.70;;;;;;4915317;29;20062;-68
2022/09/29 12:03:31;;;;;;;2.92;2.15;;;18.30;99.10;;;;;;4936797;28;20419;-68
2022/09/29 12:05:58;;;;;;;;;;;18.00;98.80;;;;;;4993845;28;20654;-69
2022/09/29 12:08:29;;;;;;;2.88;1.50;;;17.80;98.40;;;;;;5008591;28;19928;-68
2022/09/29 12:11:03;;;;;;;2.67;2.03;;;17.50;99.00;;;;;;4993121;28;20041;-68
2022/09/29 12:13:52;;;;;;;2.22;1.95;;;17.30;99.20;;;;;;4992854;28;20038;-68
2022/09/29 12:16:21;;;;;;;4.78;2.15;;;17.20;99.40;;;;;;4991257;28;20033;-68
2022/09/29 12:18:57;;;;;;;2.17;1.90;;;17.00;99.60;;;;;;5017985;28;20491;-68
2022/09/29 12:21:41;;;;;;;2.38;2.00;;;16.80;99.70;;;;;;5052705;28;20119;-69
2022/09/29 12:24:16;;;;;;;3.50;1.65;;;16.50;99.60;;;;;;5053514;28;20040;-69
2022/09/29 12:26:45;;;;;;;3.45;2.08;;;16.30;99.90;;;;;;5037009;28;20505;-68
2022/09/29 12:29:25;;;;;;;3.90;2.08;;;16.10;99.90;;;;;;5069865;28;20056;-68
2022/09/29 12:31:53;;;;;;;2.60;2.40;;;16.10;99.90;;;;;;5073434;28;20107;-68
2022/09/29 12:34:32;;;;;;;2.42;2.17;;;16.00;99.80;;;;;;5072896;28;20036;-68
2022/09/29 12:37:18;;;;;;;2.78;2.00;;;15.80;99.90;;;;;;5072685;28;20052;-68
2022/09/29 12:39:53;;;;;;;4.78;2.10;;;15.80;99.90;;;;;;5069866;28;20048;-67
2022/09/29 12:42:18;;;;;;;5.20;2.28;;;15.80;99.90;;;;;;5072790;28;20048;-67
2022/09/29 12:44:52;;;;;;;3.00;2.78;;;15.80;99.90;;;;;;5073035;28;20070;-68
2022/09/29 12:47:39;;;;;;;2.65;2.40;;;15.80;99.90;;;;;;5072297;28;20036;-67
2022/09/29 12:50:18;;;;;;;3.63;2.40;;;15.80;99.90;;;;;;5071961;28;20119;-67
2022/09/29 12:52:54;;;;;;;3.10;2.80;;;15.70;99.90;;;;;;5073093;28;20039;-67
2022/09/29 12:55:40;;;;;;;3.30;3.00;;;15.80;99.90;;;;;;5071462;28;20142;-67
2022/09/29 12:58:13;;;;;;;3.97;2.97;;;15.70;99.90;;;;;;5072749;28;20044;-66
2022/09/29 13:00:42;;;;;;;2.58;2.33;;;15.60;99.90;;;;;;5069163;28;20040;-67
2022/09/29 13:03:20;;;;;;;3.60;2.80;;;15.60;99.90;;;;;;5051961;28;20120;-67
2022/09/29 13:06:34;;;;;;;4.70;2.80;;;15.40;99.90;;;;;;5067956;28;20043;-66
2022/09/29 13:09:16;;;;;;;3.95;2.90;;;15.50;99.90;;;;;;4991725;28;20240;-66
2022/09/29 13:11:54;;;;;;;2.97;2.67;;;15.50;99.90;;;;;;4989542;28;20575;-67
2022/09/29 13:14:57;;;;;;;3.22;2.80;;;15.60;99.90;;;;;;4990499;28;20497;-67
2022/09/29 13:17:23;;;;;;;;;;;15.70;99.90;;;;;;4991993;28;20034;-69
2022/09/29 13:20:20;;;;;;;3.20;2.67;;;15.70;99.90;;;;;;4974957;28;20292;-68
2022/09/29 13:23:05;;;;;;;4.43;2.95;;;15.70;99.90;;;;;;5008321;28;20096;-69